createdAt,value
2018-05-29T00:00:49.632Z,22.52
2018-05-29T00:03:15.592Z,22.52
2018-05-29T00:05:41.511Z,22.50
2018-05-29T00:08:07.445Z,22.45
2018-05-29T00:10:33.372Z,22.37
2018-05-29T00:12:59.286Z,22.32
2018-05-29T00:15:25.209Z,22.30
2018-05-29T00:17:51.143Z,22.29
2018-05-29T00:20:17.080Z,22.28
2018-05-29T00:22:42.997Z,22.27
2018-05-29T00:25:08.932Z,22.22
2018-05-29T00:27:34.846Z,22.08
2018-05-29T00:30:00.777Z,22.06
2018-05-29T00:32:26.724Z,21.95
2018-05-29T00:34:55.564Z,21.90
2018-05-29T00:37:21.482Z,21.83
2018-05-29T00:39:47.435Z,21.79
2018-05-29T00:42:13.341Z,21.75
2018-05-29T00:44:39.277Z,21.60
2018-05-29T00:47:05.205Z,21.59
2018-05-29T00:49:31.112Z,21.51
2018-05-29T00:51:57.040Z,21.49
2018-05-29T00:54:22.953Z,21.42
2018-05-29T00:56:48.883Z,21.49
2018-05-29T00:59:14.779Z,21.46
2018-05-29T01:01:40.707Z,21.40
2018-05-29T01:04:06.641Z,21.31
2018-05-29T01:06:32.575Z,21.19
2018-05-29T01:08:58.497Z,21.13
2018-05-29T01:11:24.397Z,21.06
2018-05-29T01:13:50.403Z,20.96
2018-05-29T01:16:16.310Z,20.88
2018-05-29T01:18:42.219Z,20.93
2018-05-29T01:21:08.143Z,20.80
2018-05-29T01:23:34.078Z,20.84
2018-05-29T01:25:59.995Z,20.79
2018-05-29T01:28:25.917Z,20.77
2018-05-29T01:30:51.852Z,20.79
2018-05-29T01:33:17.773Z,20.79
2018-05-29T01:35:43.716Z,20.77
2018-05-29T01:38:09.630Z,20.76
2018-05-29T01:40:36.444Z,20.75
2018-05-29T01:43:02.359Z,20.80
2018-05-29T01:45:28.257Z,20.78
2018-05-29T01:47:54.178Z,20.80
2018-05-29T01:50:20.100Z,20.75
2018-05-29T01:52:46.043Z,20.74
2018-05-29T01:55:11.948Z,20.74
2018-05-29T01:57:37.894Z,20.69
2018-05-29T02:00:03.820Z,20.70
2018-05-29T02:02:29.747Z,20.66
2018-05-29T02:04:55.693Z,20.63
2018-05-29T02:07:21.599Z,20.54
2018-05-29T02:09:47.530Z,20.47
2018-05-29T02:12:13.443Z,20.51
2018-05-29T02:14:39.357Z,20.49
2018-05-29T02:17:05.280Z,20.48
2018-05-29T02:19:31.209Z,20.47
2018-05-29T02:21:57.113Z,20.52
2018-05-29T02:24:22.990Z,20.52
2018-05-29T02:26:48.916Z,20.42
2018-05-29T02:29:14.819Z,20.41
2018-05-29T02:31:40.723Z,20.40
2018-05-29T02:34:06.641Z,20.40
2018-05-29T02:36:32.581Z,20.39
2018-05-29T02:38:58.513Z,20.34
2018-05-29T02:41:24.451Z,20.28
2018-05-29T02:43:50.373Z,20.25
2018-05-29T02:46:16.334Z,20.33
2018-05-29T02:48:42.264Z,20.27
2018-05-29T02:51:10.946Z,20.21
2018-05-29T02:53:36.856Z,20.25
2018-05-29T02:56:02.788Z,20.22
2018-05-29T02:58:28.706Z,20.19
2018-05-29T03:00:54.634Z,20.17
2018-05-29T03:03:20.546Z,20.21
2018-05-29T03:05:46.494Z,20.26
2018-05-29T03:08:12.417Z,20.31
2018-05-29T03:10:38.335Z,20.31
2018-05-29T03:13:04.252Z,20.33
2018-05-29T03:15:30.244Z,20.41
2018-05-29T03:17:56.147Z,20.55
2018-05-29T03:20:22.048Z,20.56
2018-05-29T03:22:47.968Z,20.57
2018-05-29T03:25:13.882Z,20.65
2018-05-29T03:27:39.793Z,20.64
2018-05-29T03:30:05.701Z,20.65
2018-05-29T03:32:31.646Z,20.61
2018-05-29T03:34:57.544Z,20.68
2018-05-29T03:37:23.471Z,20.68
2018-05-29T03:39:49.409Z,20.68
2018-05-29T03:42:15.326Z,20.64
2018-05-29T03:44:41.262Z,20.60
2018-05-29T03:47:07.173Z,20.69
2018-05-29T03:49:33.102Z,20.70
2018-05-29T03:51:59.019Z,20.74
2018-05-29T03:54:24.982Z,20.71
2018-05-29T03:56:50.895Z,20.66
2018-05-29T03:59:16.803Z,20.71
2018-05-29T04:01:42.758Z,20.72
2018-05-29T04:04:08.684Z,20.73
2018-05-29T04:06:34.626Z,20.80
2018-05-29T04:09:00.564Z,20.78
2018-05-29T04:11:26.494Z,20.80
2018-05-29T04:13:52.403Z,20.85
2018-05-29T04:16:18.361Z,20.87
2018-05-29T04:18:44.284Z,20.91
2018-05-29T04:21:10.205Z,20.97
2018-05-29T04:23:36.174Z,21.03
2018-05-29T04:26:02.107Z,21.02
2018-05-29T04:28:28.032Z,21.03
2018-05-29T04:30:54.728Z,21.14
2018-05-29T04:33:20.655Z,21.19
2018-05-29T04:35:46.582Z,21.29
2018-05-29T04:38:12.490Z,21.27
2018-05-29T04:40:38.440Z,21.27
2018-05-29T04:43:04.360Z,21.25
2018-05-29T04:45:30.312Z,21.20
2018-05-29T04:47:56.238Z,21.21
2018-05-29T04:50:22.171Z,21.29
2018-05-29T04:52:48.104Z,21.40
2018-05-29T04:55:14.030Z,21.42
2018-05-29T04:57:39.955Z,21.40
2018-05-29T05:00:05.876Z,21.46
2018-05-29T05:02:31.816Z,21.45
2018-05-29T05:04:57.772Z,21.55
2018-05-29T05:07:23.706Z,21.55
2018-05-29T05:09:49.625Z,21.61
2018-05-29T05:12:15.571Z,21.69
2018-05-29T05:14:41.499Z,21.74
2018-05-29T05:17:08.351Z,21.75
2018-05-29T05:19:34.275Z,21.78
2018-05-29T05:22:00.181Z,21.79
2018-05-29T05:24:26.137Z,21.81
2018-05-29T05:26:52.059Z,21.82
2018-05-29T05:29:17.987Z,21.88
2018-05-29T05:31:44.751Z,21.96
2018-05-29T05:34:10.707Z,22.02
2018-05-29T05:36:36.628Z,22.05
2018-05-29T05:39:02.604Z,22.06
2018-05-29T05:41:28.535Z,22.06
2018-05-29T05:43:54.439Z,22.12
2018-05-29T05:46:20.375Z,22.16
2018-05-29T05:48:46.304Z,22.17
2018-05-29T05:51:12.248Z,22.24
2018-05-29T05:53:38.144Z,22.30
2018-05-29T05:56:04.065Z,22.37
2018-05-29T05:58:30.044Z,22.39
2018-05-29T06:00:55.910Z,22.46
2018-05-29T06:03:21.834Z,22.50
2018-05-29T06:05:47.735Z,22.54
2018-05-29T06:08:13.673Z,22.63
2018-05-29T06:10:39.584Z,22.69
2018-05-29T06:13:05.512Z,22.79
2018-05-29T06:15:31.438Z,22.84
2018-05-29T06:17:57.388Z,22.90
2018-05-29T06:20:23.322Z,22.98
2018-05-29T06:22:49.257Z,22.99
2018-05-29T06:25:15.199Z,23.07
2018-05-29T06:27:41.108Z,23.03
2018-05-29T06:30:07.021Z,23.09
2018-05-29T06:32:32.947Z,23.17
2018-05-29T06:34:58.882Z,23.18
2018-05-29T06:37:24.800Z,23.23
2018-05-29T06:39:50.705Z,23.26
2018-05-29T06:42:16.638Z,23.35
2018-05-29T06:44:42.550Z,23.38
2018-05-29T06:47:08.479Z,23.48
2018-05-29T06:49:35.214Z,23.58
2018-05-29T06:52:01.159Z,23.65
2018-05-29T06:54:27.079Z,23.69
2018-05-29T06:56:53.004Z,23.73
2018-05-29T06:59:18.939Z,23.81
2018-05-29T07:01:44.851Z,23.85
2018-05-29T07:04:10.785Z,23.89
2018-05-29T07:06:36.689Z,24.02
2018-05-29T07:09:02.709Z,24.14
2018-05-29T07:11:28.633Z,24.24
2018-05-29T07:13:54.543Z,24.32
2018-05-29T07:16:20.460Z,24.35
2018-05-29T07:18:46.374Z,24.44
2018-05-29T07:21:12.294Z,24.42
2018-05-29T07:23:38.231Z,24.49
2018-05-29T07:26:04.143Z,24.49
2018-05-29T07:28:30.071Z,24.50
2018-05-29T07:30:55.967Z,24.62
2018-05-29T07:33:21.917Z,24.72
2018-05-29T07:35:47.821Z,24.85
2018-05-29T07:38:13.751Z,24.92
2018-05-29T07:40:39.688Z,24.92
2018-05-29T07:43:05.583Z,25.06
2018-05-29T07:45:31.530Z,25.24
2018-05-29T07:47:57.432Z,25.30
2018-05-29T07:50:23.343Z,25.40
2018-05-29T07:52:49.279Z,25.39
2018-05-29T07:55:15.201Z,25.50
2018-05-29T07:57:41.143Z,25.45
2018-05-29T08:00:07.048Z,25.51
2018-05-29T08:02:32.974Z,25.69
2018-05-29T08:04:58.883Z,25.81
2018-05-29T08:07:24.814Z,25.86
2018-05-29T08:09:50.756Z,25.85
2018-05-29T08:12:16.668Z,25.78
2018-05-29T08:14:42.610Z,25.91
2018-05-29T08:17:08.544Z,25.90
2018-05-29T08:19:34.498Z,26.00
2018-05-29T08:22:00.450Z,26.10
2018-05-29T08:24:26.378Z,26.17
2018-05-29T08:26:52.281Z,26.21
2018-05-29T08:29:18.206Z,26.24
2018-05-29T08:31:44.131Z,26.44
2018-05-29T08:34:10.053Z,26.57
2018-05-29T08:36:35.962Z,26.57
2018-05-29T08:39:01.891Z,26.70
2018-05-29T08:41:27.817Z,26.99
2018-05-29T08:43:53.757Z,27.03
2018-05-29T08:46:19.779Z,27.07
2018-05-29T08:48:45.658Z,27.24
2018-05-29T08:51:11.606Z,27.17
2018-05-29T08:53:37.518Z,27.28
2018-05-29T08:56:03.435Z,27.32
2018-05-29T08:58:29.385Z,27.42
2018-05-29T09:00:55.295Z,27.47
2018-05-29T09:03:21.235Z,27.46
2018-05-29T09:05:48.162Z,27.64
2018-05-29T09:08:14.092Z,27.56
2018-05-29T09:10:40.018Z,27.61
2018-05-29T09:13:07.684Z,27.67
2018-05-29T09:15:33.606Z,27.79
2018-05-29T09:17:59.518Z,28.08
2018-05-29T09:20:25.442Z,28.12
2018-05-29T09:22:51.320Z,28.16
2018-05-29T09:25:17.280Z,28.25
2018-05-29T09:27:43.191Z,28.36
2018-05-29T09:30:09.108Z,28.32
2018-05-29T09:32:35.810Z,28.40
2018-05-29T09:35:01.752Z,28.32
2018-05-29T09:37:27.733Z,28.34
2018-05-29T09:39:53.637Z,28.41
2018-05-29T09:42:19.550Z,28.65
2018-05-29T09:44:45.536Z,28.66
2018-05-29T09:47:11.421Z,28.66
2018-05-29T09:49:37.344Z,28.92
2018-05-29T09:52:03.281Z,28.90
2018-05-29T09:54:29.191Z,28.99
2018-05-29T09:56:55.166Z,28.99
2018-05-29T09:59:21.082Z,29.09
2018-05-29T10:01:47.021Z,28.96
2018-05-29T10:04:14.120Z,28.94
2018-05-29T10:06:40.069Z,29.06
2018-05-29T10:09:05.995Z,29.15
2018-05-29T10:11:31.920Z,29.18
2018-05-29T10:13:57.816Z,29.49
2018-05-29T10:16:23.759Z,29.47
2018-05-29T10:18:49.668Z,29.46
2018-05-29T10:21:15.581Z,29.70
2018-05-29T10:23:42.393Z,29.84
2018-05-29T10:26:08.295Z,29.84
2018-05-29T10:28:34.221Z,29.92
2018-05-29T10:31:00.198Z,29.95
2018-05-29T10:33:26.082Z,30.10
2018-05-29T10:35:52.001Z,30.14
2018-05-29T10:38:17.948Z,30.25
2018-05-29T10:40:43.860Z,30.16
2018-05-29T10:43:09.772Z,30.21
2018-05-29T10:45:35.688Z,30.38
2018-05-29T10:48:01.626Z,30.47
2018-05-29T10:50:27.566Z,30.81
2018-05-29T10:52:53.466Z,30.89
2018-05-29T10:55:19.410Z,31.02
2018-05-29T10:57:45.328Z,31.16
2018-05-29T11:00:11.271Z,31.46
2018-05-29T11:02:37.189Z,31.52
2018-05-29T11:05:03.132Z,31.49
2018-05-29T11:07:29.058Z,31.57
2018-05-29T11:09:54.992Z,31.88
2018-05-29T11:12:20.910Z,31.98
2018-05-29T11:14:46.814Z,32.20
2018-05-29T11:17:12.732Z,32.40
2018-05-29T11:19:38.634Z,32.84
2018-05-29T11:22:04.598Z,33.27
2018-05-29T11:24:30.506Z,33.28
2018-05-29T11:26:56.483Z,33.62
2018-05-29T11:29:22.374Z,33.60
2018-05-29T11:31:48.294Z,33.86
2018-05-29T11:34:14.235Z,34.43
2018-05-29T11:36:40.143Z,34.75
2018-05-29T11:39:06.052Z,34.60
2018-05-29T11:41:31.979Z,34.71
2018-05-29T11:43:57.912Z,34.66
2018-05-29T11:46:23.842Z,35.55
2018-05-29T11:48:49.775Z,34.91
2018-05-29T11:51:15.685Z,35.21
2018-05-29T11:53:41.592Z,35.01
2018-05-29T11:56:07.513Z,34.92
2018-05-29T11:58:33.426Z,35.34
2018-05-29T12:00:59.339Z,35.53
2018-05-29T12:03:25.283Z,35.87
2018-05-29T12:05:51.229Z,36.04
2018-05-29T12:08:17.168Z,35.83
2018-05-29T12:10:43.905Z,36.00
2018-05-29T12:13:09.824Z,36.04
2018-05-29T12:15:35.769Z,36.04
2018-05-29T12:18:01.690Z,36.55
2018-05-29T12:20:27.629Z,36.65
2018-05-29T12:22:53.548Z,36.68
2018-05-29T12:25:19.489Z,36.71
2018-05-29T12:27:45.422Z,36.62
2018-05-29T12:30:11.356Z,36.82
2018-05-29T12:32:37.295Z,36.96
2018-05-29T12:35:03.232Z,36.77
2018-05-29T12:37:29.198Z,37.05
2018-05-29T12:39:55.124Z,36.72
2018-05-29T12:42:21.084Z,36.96
2018-05-29T12:44:47.000Z,37.38
2018-05-29T12:47:12.957Z,37.42
2018-05-29T12:49:38.874Z,38.03
2018-05-29T12:52:04.796Z,37.89
2018-05-29T12:54:30.722Z,37.33
2018-05-29T12:56:56.634Z,37.54
2018-05-29T12:59:22.588Z,38.13
2018-05-29T13:01:48.502Z,37.96
2018-05-29T13:04:14.481Z,37.59
2018-05-29T13:06:40.407Z,36.71
2018-05-29T13:09:06.350Z,37.62
2018-05-29T13:11:32.262Z,37.53
2018-05-29T13:13:58.181Z,37.25
2018-05-29T13:16:24.087Z,37.09
2018-05-29T13:18:50.013Z,37.68
2018-05-29T13:21:15.923Z,38.17
2018-05-29T13:23:41.836Z,38.27
2018-05-29T13:26:07.766Z,37.95
2018-05-29T13:28:33.687Z,37.36
2018-05-29T13:30:59.623Z,37.77
2018-05-29T13:33:25.541Z,38.13
2018-05-29T13:35:51.447Z,38.54
2018-05-29T13:38:17.481Z,38.65
2018-05-29T13:40:43.423Z,38.57
2018-05-29T13:43:09.361Z,38.45
2018-05-29T13:45:35.271Z,38.24
2018-05-29T13:48:01.219Z,38.53
2018-05-29T13:50:27.129Z,38.33
2018-05-29T13:52:53.077Z,38.37
2018-05-29T13:55:19.017Z,38.66
2018-05-29T13:57:46.535Z,38.69
2018-05-29T14:00:12.457Z,38.72
2018-05-29T14:02:38.379Z,38.55
2018-05-29T14:05:04.332Z,38.28
2018-05-29T14:07:30.254Z,38.53
2018-05-29T14:10:11.105Z,38.36
2018-05-29T14:12:37.062Z,38.05
2018-05-29T14:15:03.020Z,37.17
2018-05-29T14:17:28.972Z,37.50
2018-05-29T14:19:54.920Z,37.72
2018-05-29T14:22:20.842Z,37.36
2018-05-29T14:24:46.776Z,37.77
2018-05-29T14:27:12.702Z,38.15
2018-05-29T14:29:38.604Z,38.28
2018-05-29T14:32:04.548Z,38.39
2018-05-29T14:34:30.472Z,38.41
2018-05-29T14:36:56.398Z,38.65
2018-05-29T14:39:22.340Z,38.90
2018-05-29T14:41:48.285Z,38.55
2018-05-29T14:44:14.206Z,38.02
2018-05-29T14:46:40.128Z,36.88
2018-05-29T14:49:06.037Z,37.04
2018-05-29T14:51:31.943Z,36.46
2018-05-29T14:53:57.869Z,36.16
2018-05-29T14:56:23.801Z,35.23
2018-05-29T14:58:49.753Z,34.61
2018-05-29T15:01:15.679Z,34.40
2018-05-29T15:03:41.604Z,34.59
2018-05-29T15:06:07.532Z,34.40
2018-05-29T15:08:33.468Z,34.40
2018-05-29T15:10:59.431Z,34.23
2018-05-29T15:13:25.353Z,34.10
2018-05-29T15:15:51.289Z,34.06
2018-05-29T15:18:17.226Z,33.72
2018-05-29T15:20:43.161Z,33.41
2018-05-29T15:23:09.109Z,33.44
2018-05-29T15:25:35.064Z,33.19
2018-05-29T15:28:01.001Z,33.25
2018-05-29T15:30:27.570Z,33.09
2018-05-29T15:32:53.514Z,33.03
2018-05-29T15:35:19.437Z,33.01
2018-05-29T15:37:45.366Z,33.01
2018-05-29T15:40:11.278Z,32.94
2018-05-29T15:42:37.224Z,32.96
2018-05-29T15:45:03.142Z,32.89
2018-05-29T15:47:29.074Z,32.83
2018-05-29T15:49:54.988Z,32.80
2018-05-29T15:52:20.894Z,32.68
2018-05-29T15:54:46.842Z,32.65
2018-05-29T15:57:12.796Z,32.61
2018-05-29T15:59:38.738Z,32.43
2018-05-29T16:02:04.685Z,32.48
2018-05-29T16:04:30.628Z,32.37
2018-05-29T16:06:56.555Z,32.33
2018-05-29T16:09:22.481Z,32.38
2018-05-29T16:11:48.378Z,32.21
2018-05-29T16:14:14.352Z,32.12
2018-05-29T16:16:40.261Z,32.05
2018-05-29T16:19:06.193Z,32.12
2018-05-29T16:21:32.118Z,32.03
2018-05-29T16:23:58.031Z,31.78
2018-05-29T16:26:24.000Z,31.73
2018-05-29T16:28:49.919Z,31.65
2018-05-29T16:31:15.911Z,31.74
2018-05-29T16:33:41.834Z,31.74
2018-05-29T16:36:07.758Z,31.77
2018-05-29T16:38:33.675Z,31.75
2018-05-29T16:40:59.594Z,31.77
2018-05-29T16:43:25.583Z,31.89
2018-05-29T16:45:51.519Z,31.97
2018-05-29T16:48:17.460Z,32.10
2018-05-29T16:50:43.411Z,31.95
2018-05-29T16:53:09.370Z,32.05
2018-05-29T16:55:35.335Z,31.94
2018-05-29T16:58:01.325Z,32.04
2018-05-29T17:00:27.266Z,32.07
2018-05-29T17:02:53.215Z,32.05
2018-05-29T17:05:19.170Z,32.13
2018-05-29T17:07:45.120Z,32.25
2018-05-29T17:10:11.062Z,32.16
2018-05-29T17:12:37.046Z,32.26
2018-05-29T17:15:03.017Z,32.28
2018-05-29T17:17:29.061Z,32.18
2018-05-29T17:19:55.014Z,32.14
2018-05-29T17:22:20.979Z,32.05
2018-05-29T17:24:47.080Z,31.90
2018-05-29T17:27:13.118Z,31.77
2018-05-29T17:29:39.133Z,31.80
2018-05-29T17:32:05.103Z,31.64
2018-05-29T17:34:31.041Z,31.48
2018-05-29T17:36:57.065Z,31.45
2018-05-29T17:39:22.998Z,31.33
2018-05-29T17:41:49.023Z,31.26
2018-05-29T17:44:14.996Z,31.06
2018-05-29T17:46:40.969Z,30.88
2018-05-29T17:49:07.065Z,30.76
2018-05-29T17:51:33.117Z,30.56
2018-05-29T17:53:59.069Z,30.40
2018-05-29T17:56:26.594Z,30.26
2018-05-29T17:58:52.659Z,30.22
2018-05-29T18:01:18.624Z,30.22
2018-05-29T18:03:44.578Z,30.08
2018-05-29T18:06:10.533Z,30.09
2018-05-29T18:08:36.517Z,30.03
2018-05-29T18:11:02.505Z,29.79
2018-05-29T18:13:28.564Z,29.68
2018-05-29T18:15:54.576Z,29.59
2018-05-29T18:18:20.642Z,29.52
2018-05-29T18:20:46.638Z,29.50
2018-05-29T18:23:12.560Z,29.50
2018-05-29T18:25:38.566Z,29.44
2018-05-29T18:28:05.450Z,29.46
2018-05-29T18:30:31.477Z,29.30
2018-05-29T18:32:57.416Z,29.05
2018-05-29T18:35:23.448Z,28.92
2018-05-29T18:37:49.543Z,28.83
2018-05-29T18:40:15.614Z,28.75
2018-05-29T18:42:42.177Z,28.59
2018-05-29T18:45:08.170Z,28.49
2018-05-29T18:47:34.150Z,28.33
2018-05-29T18:50:00.158Z,28.36
2018-05-29T18:52:26.113Z,28.37
2018-05-29T18:54:52.113Z,28.43
2018-05-29T18:57:18.174Z,28.47
2018-05-29T18:59:44.149Z,28.52
2018-05-29T19:02:10.123Z,28.49
2018-05-29T19:04:36.042Z,28.41
2018-05-29T19:07:03.055Z,28.29
2018-05-29T19:09:29.033Z,28.21
2018-05-29T19:11:55.136Z,28.10
2018-05-29T19:14:21.749Z,28.01
2018-05-29T19:16:47.701Z,27.81
2018-05-29T19:19:14.527Z,27.73
2018-05-29T19:21:40.571Z,27.50
2018-05-29T19:24:06.550Z,27.34
2018-05-29T19:26:32.466Z,27.35
2018-05-29T19:28:59.446Z,27.22
2018-05-29T19:31:25.428Z,27.22
2018-05-29T19:33:51.408Z,27.04
2018-05-29T19:36:17.452Z,26.73
2018-05-29T19:38:43.456Z,26.61
2018-05-29T19:41:09.441Z,26.39
2018-05-29T19:43:35.413Z,26.24
2018-05-29T19:46:01.370Z,26.11
2018-05-29T19:48:27.469Z,25.96
2018-05-29T19:50:53.471Z,25.72
2018-05-29T19:53:19.573Z,25.57
2018-05-29T19:55:45.566Z,25.63
2018-05-29T19:58:11.545Z,25.64
2018-05-29T20:00:37.571Z,25.64
2018-05-29T20:03:04.494Z,25.63
2018-05-29T20:05:31.467Z,25.53
2018-05-29T20:07:58.351Z,25.58
2018-05-29T20:10:24.893Z,25.60
2018-05-29T20:12:51.771Z,25.44
2018-05-29T20:15:17.717Z,25.46
2018-05-29T20:17:43.717Z,25.45
2018-05-29T20:20:10.805Z,25.56
2018-05-29T20:22:37.459Z,25.43
2018-05-29T20:25:04.289Z,25.36
2018-05-29T20:27:30.296Z,25.36
2018-05-29T20:29:56.283Z,25.36
2018-05-29T20:32:22.299Z,25.35
2018-05-29T20:34:49.244Z,25.27
2018-05-29T20:37:15.224Z,25.24
2018-05-29T20:39:41.207Z,25.30
2018-05-29T20:42:07.210Z,25.26
2018-05-29T20:44:33.201Z,25.14
2018-05-29T20:47:00.073Z,25.19
2018-05-29T20:49:26.048Z,25.26
2018-05-29T20:51:51.996Z,25.23
2018-05-29T20:54:17.938Z,25.27
2018-05-29T20:56:43.945Z,25.28
2018-05-29T20:59:09.913Z,25.27
2018-05-29T21:01:35.884Z,25.36
2018-05-29T21:04:01.963Z,25.37
2018-05-29T21:06:27.953Z,25.39
2018-05-29T21:08:53.927Z,25.31
2018-05-29T21:11:19.969Z,25.39
2018-05-29T21:13:45.939Z,25.37
2018-05-29T21:16:11.932Z,25.37
2018-05-29T21:18:37.865Z,25.33
2018-05-29T21:21:03.788Z,25.23
2018-05-29T21:23:29.765Z,24.96
2018-05-29T21:25:56.111Z,24.69
2018-05-29T21:28:22.092Z,24.38
2018-05-29T21:30:48.051Z,24.01
2018-05-29T21:33:14.030Z,23.75
2018-05-29T21:35:39.972Z,23.32
2018-05-29T21:38:05.906Z,23.24
2018-05-29T21:40:31.903Z,23.13
2018-05-29T21:42:57.872Z,22.92
2018-05-29T21:45:23.807Z,22.84
2018-05-29T21:47:49.782Z,22.42
2018-05-29T21:50:15.711Z,22.45
2018-05-29T21:52:41.683Z,22.57
2018-05-29T21:55:07.634Z,22.48
2018-05-29T21:57:33.581Z,22.22
2018-05-29T21:59:59.525Z,22.42
2018-05-29T22:02:25.445Z,22.58
2018-05-29T22:04:51.380Z,22.69
2018-05-29T22:07:17.305Z,22.80
2018-05-29T22:09:43.250Z,23.01
2018-05-29T22:12:10.006Z,23.00
2018-05-29T22:14:35.929Z,22.90
2018-05-29T22:17:01.843Z,22.92
2018-05-29T22:19:27.747Z,22.86
2018-05-29T22:21:53.695Z,22.77
2018-05-29T22:24:19.605Z,22.45
2018-05-29T22:26:45.532Z,22.22
2018-05-29T22:29:11.454Z,21.17
2018-05-29T22:31:37.423Z,20.18
2018-05-29T22:34:03.358Z,-141.21
2018-05-29T22:36:29.279Z,-141.21
2018-05-29T22:38:55.201Z,-141.21
2018-05-29T22:41:21.133Z,-141.21
2018-05-29T22:43:47.038Z,-141.21
2018-05-29T22:46:12.953Z,-141.21
2018-05-29T22:48:38.892Z,-141.21
2018-05-29T22:51:04.800Z,-141.21
2018-05-29T22:53:30.727Z,-141.21
2018-05-29T22:55:56.666Z,-141.21
2018-05-29T22:58:22.623Z,-141.21
2018-05-29T23:00:48.569Z,-141.21
2018-05-29T23:03:14.509Z,-141.21
2018-05-29T23:05:40.438Z,-141.21
2018-05-29T23:08:06.368Z,-141.21
2018-05-29T23:10:32.315Z,-141.21
2018-05-29T23:12:58.189Z,-141.21
2018-05-29T23:15:24.139Z,-141.21
2018-05-29T23:17:50.064Z,-141.21
2018-05-29T23:20:16.003Z,-141.21
2018-05-29T23:22:41.918Z,-141.21
2018-05-29T23:25:07.856Z,-141.21
2018-05-29T23:27:33.766Z,-141.21
2018-05-29T23:29:59.727Z,-141.21
2018-05-29T23:32:25.668Z,-141.21
2018-05-29T23:34:51.637Z,-141.21
2018-05-29T23:37:17.589Z,-141.21
2018-05-29T23:39:43.519Z,-141.21
2018-05-29T23:42:09.484Z,-141.21
2018-05-29T23:44:35.408Z,-141.21
2018-05-29T23:47:01.351Z,-141.21
2018-05-29T23:49:27.284Z,-141.21
2018-05-29T23:51:53.228Z,-141.21
2018-05-29T23:54:19.154Z,-141.21
2018-05-29T23:56:45.093Z,-141.21
2018-05-29T23:59:11.041Z,-141.21
